sensor_id;sensor_type;location;lat;lon;timestamp;P1;durP1;ratioP1;P2;durP2;ratioP2
3627;SDS011;1830;49.000;12.074;2024-03-23T00:52:48;40.70;;;26.00;;
3627;SDS011;1830;49.000;12.074;2024-03-23T00:55:14;41.10;;;24.60;;
3627;SDS011;1830;49.000;12.074;2024-03-23T00:57:41;41.10;;;25.13;;
3627;SDS011;1830;49.000;12.074;2024-03-23T01:00:07;40.03;;;25.53;;
3627;SDS011;1830;49.000;12.074;2024-03-23T01:02:35;40.77;;;24.77;;
3627;SDS011;1830;49.000;12.074;2024-03-23T01:05:01;39.70;;;27.10;;
3627;SDS011;1830;49.000;12.074;2024-03-23T01:07:28;34.47;;;23.60;;
3627;SDS011;1830;49.000;12.074;2024-03-23T01:09:55;44.53;;;26.60;;
3627;SDS011;1830;49.000;12.074;2024-03-23T01:12:22;40.93;;;26.00;;
3627;SDS011;1830;49.000;12.074;2024-03-23T01:14:47;43.07;;;26.90;;
3627;SDS011;1830;49.000;12.074;2024-03-23T01:17:14;37.53;;;24.50;;
3627;SDS011;1830;49.000;12.074;2024-03-23T01:19:40;42.07;;;25.93;;
3627;SDS011;1830;49.000;12.074;2024-03-23T01:22:07;37.67;;;24.77;;
3627;SDS011;1830;49.000;12.074;2024-03-23T01:24:35;35.00;;;25.47;;
3627;SDS011;1830;49.000;12.074;2024-03-23T01:27:03;39.43;;;25.87;;
3627;SDS011;1830;49.000;12.074;2024-03-23T01:29:29;38.80;;;25.17;;
3627;SDS011;1830;49.000;12.074;2024-03-23T01:31:56;46.20;;;26.83;;
3627;SDS011;1830;49.000;12.074;2024-03-23T01:34:21;40.63;;;26.47;;
3627;SDS011;1830;49.000;12.074;2024-03-23T01:36:49;38.53;;;25.17;;
3627;SDS011;1830;49.000;12.074;2024-03-23T01:39:15;41.97;;;25.90;;
3627;SDS011;1830;49.000;12.074;2024-03-23T01:41:42;41.57;;;26.40;;
3627;SDS011;1830;49.000;12.074;2024-03-23T01:44:09;48.87;;;28.33;;
3627;SDS011;1830;49.000;12.074;2024-03-23T01:46:37;44.27;;;27.23;;
3627;SDS011;1830;49.000;12.074;2024-03-23T01:49:03;48.60;;;28.00;;
3627;SDS011;1830;49.000;12.074;2024-03-23T01:51:31;41.93;;;25.73;;
3627;SDS011;1830;49.000;12.074;2024-03-23T01:53:58;45.67;;;26.33;;
3627;SDS011;1830;49.000;12.074;2024-03-23T01:56:27;46.03;;;26.63;;
3627;SDS011;1830;49.000;12.074;2024-03-23T01:58:53;44.50;;;27.87;;
3627;SDS011;1830;49.000;12.074;2024-03-23T02:01:21;43.23;;;26.93;;
3627;SDS011;1830;49.000;12.074;2024-03-23T02:03:47;56.70;;;28.00;;
3627;SDS011;1830;49.000;12.074;2024-03-23T02:06:14;48.57;;;27.43;;
3627;SDS011;1830;49.000;12.074;2024-03-23T02:08:40;46.00;;;26.80;;
3627;SDS011;1830;49.000;12.074;2024-03-23T02:11:07;44.30;;;26.73;;
3627;SDS011;1830;49.000;12.074;2024-03-23T02:13:33;45.90;;;28.10;;
3627;SDS011;1830;49.000;12.074;2024-03-23T02:16:00;45.70;;;28.30;;
3627;SDS011;1830;49.000;12.074;2024-03-23T02:18:27;45.10;;;27.07;;
3627;SDS011;1830;49.000;12.074;2024-03-23T02:20:54;42.10;;;26.47;;
3627;SDS011;1830;49.000;12.074;2024-03-23T02:23:21;41.40;;;25.33;;
3627;SDS011;1830;49.000;12.074;2024-03-23T02:25:49;41.67;;;26.10;;
3627;SDS011;1830;49.000;12.074;2024-03-23T02:28:15;42.60;;;27.57;;
3627;SDS011;1830;49.000;12.074;2024-03-23T02:30:42;47.60;;;28.10;;
3627;SDS011;1830;49.000;12.074;2024-03-23T02:33:08;49.10;;;29.87;;
3627;SDS011;1830;49.000;12.074;2024-03-23T02:35:35;46.37;;;29.00;;
3627;SDS011;1830;49.000;12.074;2024-03-23T02:38:00;45.37;;;27.53;;
3627;SDS011;1830;49.000;12.074;2024-03-23T02:40:28;49.73;;;29.00;;
3627;SDS011;1830;49.000;12.074;2024-03-23T02:42:54;47.93;;;28.83;;
3627;SDS011;1830;49.000;12.074;2024-03-23T02:45:21;45.37;;;28.03;;
3627;SDS011;1830;49.000;12.074;2024-03-23T02:47:47;44.00;;;27.17;;
3627;SDS011;1830;49.000;12.074;2024-03-23T02:50:16;46.07;;;27.63;;
3627;SDS011;1830;49.000;12.074;2024-03-23T02:52:43;56.17;;;28.80;;
3627;SDS011;1830;49.000;12.074;2024-03-23T02:55:09;49.30;;;29.70;;
3627;SDS011;1830;49.000;12.074;2024-03-23T02:57:37;49.73;;;27.60;;
3627;SDS011;1830;49.000;12.074;2024-03-23T03:00:04;42.93;;;26.30;;
3627;SDS011;1830;49.000;12.074;2024-03-23T03:02:32;45.60;;;28.30;;
3627;SDS011;1830;49.000;12.074;2024-03-23T03:04:59;44.67;;;28.20;;
3627;SDS011;1830;49.000;12.074;2024-03-23T03:07:25;49.53;;;28.40;;
3627;SDS011;1830;49.000;12.074;2024-03-23T03:09:51;49.27;;;29.60;;
3627;SDS011;1830;49.000;12.074;2024-03-23T03:12:17;48.37;;;27.90;;
3627;SDS011;1830;49.000;12.074;2024-03-23T03:14:45;48.13;;;28.43;;
3627;SDS011;1830;49.000;12.074;2024-03-23T03:17:11;44.77;;;28.17;;
3627;SDS011;1830;49.000;12.074;2024-03-23T03:19:38;45.20;;;28.03;;
3627;SDS011;1830;49.000;12.074;2024-03-23T03:22:04;44.30;;;28.30;;
3627;SDS011;1830;49.000;12.074;2024-03-23T03:24:31;48.40;;;30.47;;
3627;SDS011;1830;49.000;12.074;2024-03-23T03:26:56;45.90;;;28.27;;
3627;SDS011;1830;49.000;12.074;2024-03-23T03:29:23;42.80;;;26.90;;
3627;SDS011;1830;49.000;12.074;2024-03-23T03:31:51;48.43;;;28.37;;
3627;SDS011;1830;49.000;12.074;2024-03-23T03:34:18;47.07;;;28.30;;
3627;SDS011;1830;49.000;12.074;2024-03-23T03:36:43;42.30;;;27.03;;
3627;SDS011;1830;49.000;12.074;2024-03-23T03:39:10;45.17;;;25.57;;
3627;SDS011;1830;49.000;12.074;2024-03-23T03:41:37;40.53;;;26.03;;
3627;SDS011;1830;49.000;12.074;2024-03-23T03:44:04;53.23;;;26.73;;
3627;SDS011;1830;49.000;12.074;2024-03-23T03:46:30;46.17;;;27.07;;
3627;SDS011;1830;49.000;12.074;2024-03-23T03:48:58;44.80;;;26.67;;
3627;SDS011;1830;49.000;12.074;2024-03-23T03:51:24;46.00;;;28.13;;
3627;SDS011;1830;49.000;12.074;2024-03-23T03:53:50;53.53;;;29.07;;
3627;SDS011;1830;49.000;12.074;2024-03-23T03:56:16;48.83;;;28.67;;
3627;SDS011;1830;49.000;12.074;2024-03-23T03:58:43;46.37;;;28.63;;
3627;SDS011;1830;49.000;12.074;2024-03-23T04:01:09;55.77;;;29.00;;
3627;SDS011;1830;49.000;12.074;2024-03-23T04:03:35;54.07;;;29.50;;
3627;SDS011;1830;49.000;12.074;2024-03-23T04:06:03;52.10;;;27.17;;
3627;SDS011;1830;49.000;12.074;2024-03-23T04:08:30;41.07;;;26.27;;
3627;SDS011;1830;49.000;12.074;2024-03-23T04:10:56;42.50;;;25.30;;
3627;SDS011;1830;49.000;12.074;2024-03-23T04:13:22;48.43;;;26.70;;
3627;SDS011;1830;49.000;12.074;2024-03-23T04:15:48;43.47;;;26.73;;
3627;SDS011;1830;49.000;12.074;2024-03-23T04:18:15;43.50;;;26.10;;
3627;SDS011;1830;49.000;12.074;2024-03-23T04:20:41;40.17;;;26.43;;
3627;SDS011;1830;49.000;12.074;2024-03-23T04:23:09;39.30;;;24.57;;
3627;SDS011;1830;49.000;12.074;2024-03-23T04:25:35;41.40;;;25.50;;
3627;SDS011;1830;49.000;12.074;2024-03-23T04:28:01;45.33;;;24.50;;
3627;SDS011;1830;49.000;12.074;2024-03-23T04:30:28;38.70;;;24.13;;
3627;SDS011;1830;49.000;12.074;2024-03-23T04:32:56;36.20;;;23.93;;
3627;SDS011;1830;49.000;12.074;2024-03-23T04:35:23;39.27;;;22.77;;
3627;SDS011;1830;49.000;12.074;2024-03-23T04:37:50;41.90;;;23.80;;
3627;SDS011;1830;49.000;12.074;2024-03-23T04:40:19;36.90;;;24.17;;
3627;SDS011;1830;49.000;12.074;2024-03-23T04:42:45;37.40;;;24.53;;
3627;SDS011;1830;49.000;12.074;2024-03-23T04:45:12;37.20;;;24.90;;
3627;SDS011;1830;49.000;12.074;2024-03-23T04:47:39;39.00;;;24.80;;
3627;SDS011;1830;49.000;12.074;2024-03-23T04:50:06;34.87;;;22.03;;
3627;SDS011;1830;49.000;12.074;2024-03-23T04:52:35;35.47;;;22.67;;
3627;SDS011;1830;49.000;12.074;2024-03-23T04:55:02;35.03;;;22.87;;
3627;SDS011;1830;49.000;12.074;2024-03-23T04:57:31;36.73;;;23.13;;
3627;SDS011;1830;49.000;12.074;2024-03-23T04:59:57;37.93;;;23.77;;
3627;SDS011;1830;49.000;12.074;2024-03-23T05:02:23;43.73;;;25.80;;
3627;SDS011;1830;49.000;12.074;2024-03-23T05:04:50;34.20;;;22.50;;
3627;SDS011;1830;49.000;12.074;2024-03-23T05:07:17;36.13;;;21.83;;
3627;SDS011;1830;49.000;12.074;2024-03-23T05:09:43;31.17;;;20.60;;
3627;SDS011;1830;49.000;12.074;2024-03-23T05:12:10;30.73;;;18.53;;
3627;SDS011;1830;49.000;12.074;2024-03-23T05:14:37;27.67;;;18.50;;
3627;SDS011;1830;49.000;12.074;2024-03-23T05:17:04;31.13;;;19.00;;
3627;SDS011;1830;49.000;12.074;2024-03-23T05:19:30;31.33;;;19.17;;
3627;SDS011;1830;49.000;12.074;2024-03-23T05:21:57;26.60;;;15.00;;
3627;SDS011;1830;49.000;12.074;2024-03-23T05:24:23;24.40;;;15.30;;
3627;SDS011;1830;49.000;12.074;2024-03-23T05:26:50;19.57;;;12.93;;
3627;SDS011;1830;49.000;12.074;2024-03-23T05:29:15;20.77;;;13.13;;
3627;SDS011;1830;49.000;12.074;2024-03-23T05:31:43;21.63;;;15.13;;
3627;SDS011;1830;49.000;12.074;2024-03-23T05:34:14;24.43;;;16.70;;
3627;SDS011;1830;49.000;12.074;2024-03-23T05:36:41;21.30;;;15.00;;
3627;SDS011;1830;49.000;12.074;2024-03-23T05:39:06;27.20;;;17.60;;
3627;SDS011;1830;49.000;12.074;2024-03-23T05:41:33;38.33;;;17.43;;
3627;SDS011;1830;49.000;12.074;2024-03-23T05:44:01;30.13;;;18.27;;
3627;SDS011;1830;49.000;12.074;2024-03-23T05:46:27;28.10;;;17.93;;
3627;SDS011;1830;49.000;12.074;2024-03-23T05:48:55;29.33;;;17.90;;
3627;SDS011;1830;49.000;12.074;2024-03-23T05:51:26;24.40;;;16.43;;
3627;SDS011;1830;49.000;12.074;2024-03-23T05:53:53;25.27;;;16.73;;
3627;SDS011;1830;49.000;12.074;2024-03-23T05:56:19;35.10;;;17.17;;
3627;SDS011;1830;49.000;12.074;2024-03-23T05:58:46;25.70;;;15.77;;
3627;SDS011;1830;49.000;12.074;2024-03-23T06:01:13;24.20;;;15.20;;
3627;SDS011;1830;49.000;12.074;2024-03-23T06:03:40;13.10;;;7.40;;
3627;SDS011;1830;49.000;12.074;2024-03-23T06:06:07;12.10;;;7.67;;
3627;SDS011;1830;49.000;12.074;2024-03-23T06:08:36;10.87;;;6.70;;
3627;SDS011;1830;49.000;12.074;2024-03-23T06:11:02;8.90;;;5.73;;
3627;SDS011;1830;49.000;12.074;2024-03-23T06:13:31;6.97;;;5.27;;
3627;SDS011;1830;49.000;12.074;2024-03-23T06:15:57;9.03;;;5.80;;
3627;SDS011;1830;49.000;12.074;2024-03-23T06:18:24;7.60;;;4.87;;
3627;SDS011;1830;49.000;12.074;2024-03-23T06:20:49;10.77;;;6.20;;
3627;SDS011;1830;49.000;12.074;2024-03-23T06:23:18;19.07;;;11.83;;
3627;SDS011;1830;49.000;12.074;2024-03-23T06:25:45;20.17;;;13.60;;
3627;SDS011;1830;49.000;12.074;2024-03-23T06:28:12;24.57;;;15.90;;
3627;SDS011;1830;49.000;12.074;2024-03-23T06:30:37;24.97;;;15.80;;
3627;SDS011;1830;49.000;12.074;2024-03-23T06:33:04;26.00;;;16.00;;
3627;SDS011;1830;49.000;12.074;2024-03-23T06:35:30;21.87;;;14.50;;
3627;SDS011;1830;49.000;12.074;2024-03-23T06:37:57;28.30;;;13.77;;
3627;SDS011;1830;49.000;12.074;2024-03-23T06:40:24;20.70;;;13.60;;
3627;SDS011;1830;49.000;12.074;2024-03-23T06:42:51;18.60;;;13.23;;
3627;SDS011;1830;49.000;12.074;2024-03-23T06:45:17;21.63;;;14.53;;
3627;SDS011;1830;49.000;12.074;2024-03-23T06:47:48;27.20;;;14.50;;
3627;SDS011;1830;49.000;12.074;2024-03-23T06:50:14;16.97;;;13.00;;
3627;SDS011;1830;49.000;12.074;2024-03-23T06:52:40;21.23;;;13.47;;
3627;SDS011;1830;49.000;12.074;2024-03-23T06:55:06;18.90;;;13.77;;
3627;SDS011;1830;49.000;12.074;2024-03-23T06:57:36;17.73;;;12.73;;
3627;SDS011;1830;49.000;12.074;2024-03-23T07:00:02;19.63;;;14.03;;
3627;SDS011;1830;49.000;12.074;2024-03-23T07:02:29;18.50;;;12.67;;
3627;SDS011;1830;49.000;12.074;2024-03-23T07:04:55;19.63;;;13.07;;
3627;SDS011;1830;49.000;12.074;2024-03-23T07:07:22;21.03;;;14.00;;
3627;SDS011;1830;49.000;12.074;2024-03-23T07:09:47;15.97;;;11.83;;
3627;SDS011;1830;49.000;12.074;2024-03-23T07:12:14;17.30;;;12.47;;
3627;SDS011;1830;49.000;12.074;2024-03-23T07:14:41;16.57;;;13.30;;
3627;SDS011;1830;49.000;12.074;2024-03-23T07:17:08;17.87;;;14.10;;
3627;SDS011;1830;49.000;12.074;2024-03-23T07:19:34;20.40;;;14.27;;
3627;SDS011;1830;49.000;12.074;2024-03-23T07:22:00;29.47;;;15.57;;
3627;SDS011;1830;49.000;12.074;2024-03-23T07:24:26;23.00;;;15.40;;
3627;SDS011;1830;49.000;12.074;2024-03-23T07:26:55;23.50;;;15.33;;
3627;SDS011;1830;49.000;12.074;2024-03-23T07:29:23;17.53;;;13.73;;
3627;SDS011;1830;49.000;12.074;2024-03-23T07:31:51;18.63;;;13.70;;
3627;SDS011;1830;49.000;12.074;2024-03-23T07:34:17;16.57;;;12.90;;
3627;SDS011;1830;49.000;12.074;2024-03-23T07:36:43;21.90;;;14.30;;
3627;SDS011;1830;49.000;12.074;2024-03-23T07:39:09;25.33;;;15.10;;
3627;SDS011;1830;49.000;12.074;2024-03-23T07:41:36;30.30;;;16.37;;
3627;SDS011;1830;49.000;12.074;2024-03-23T07:44:02;26.00;;;14.83;;
3627;SDS011;1830;49.000;12.074;2024-03-23T07:46:29;5.50;;;4.30;;
3627;SDS011;1830;49.000;12.074;2024-03-23T07:48:56;8.47;;;6.03;;
3627;SDS011;1830;49.000;12.074;2024-03-23T07:51:23;8.33;;;5.30;;
3627;SDS011;1830;49.000;12.074;2024-03-23T07:53:49;9.87;;;6.80;;
3627;SDS011;1830;49.000;12.074;2024-03-23T07:56:16;9.93;;;6.57;;
3627;SDS011;1830;49.000;12.074;2024-03-23T07:58:43;10.33;;;6.40;;
3627;SDS011;1830;49.000;12.074;2024-03-23T08:01:10;9.00;;;6.57;;
3627;SDS011;1830;49.000;12.074;2024-03-23T08:03:37;8.17;;;6.33;;
3627;SDS011;1830;49.000;12.074;2024-03-23T08:06:09;38.20;;;18.60;;
3627;SDS011;1830;49.000;12.074;2024-03-23T08:08:35;5.37;;;3.73;;
3627;SDS011;1830;49.000;12.074;2024-03-23T08:11:02;4.37;;;3.80;;
3627;SDS011;1830;49.000;12.074;2024-03-23T08:13:29;9.17;;;5.50;;
3627;SDS011;1830;49.000;12.074;2024-03-23T08:15:56;7.70;;;5.43;;
3627;SDS011;1830;49.000;12.074;2024-03-23T08:18:22;5.60;;;5.00;;
3627;SDS011;1830;49.000;12.074;2024-03-23T08:20:55;16.20;;;8.63;;
3627;SDS011;1830;49.000;12.074;2024-03-23T08:23:23;5.30;;;4.67;;
3627;SDS011;1830;49.000;12.074;2024-03-23T08:25:49;5.50;;;3.80;;
3627;SDS011;1830;49.000;12.074;2024-03-23T08:28:16;7.43;;;5.17;;
3627;SDS011;1830;49.000;12.074;2024-03-23T08:30:42;5.47;;;4.80;;
3627;SDS011;1830;49.000;12.074;2024-03-23T08:33:09;6.87;;;5.30;;
3627;SDS011;1830;49.000;12.074;2024-03-23T08:35:35;3.77;;;3.40;;
3627;SDS011;1830;49.000;12.074;2024-03-23T08:38:02;38.43;;;17.10;;
3627;SDS011;1830;49.000;12.074;2024-03-23T08:40:29;12.87;;;6.77;;
3627;SDS011;1830;49.000;12.074;2024-03-23T08:42:56;5.83;;;4.73;;
3627;SDS011;1830;49.000;12.074;2024-03-23T08:45:22;5.60;;;3.87;;
3627;SDS011;1830;49.000;12.074;2024-03-23T08:47:50;4.30;;;3.90;;
3627;SDS011;1830;49.000;12.074;2024-03-23T08:50:16;9.67;;;6.30;;
3627;SDS011;1830;49.000;12.074;2024-03-23T08:52:43;14.00;;;4.80;;
3627;SDS011;1830;49.000;12.074;2024-03-23T08:55:09;8.90;;;4.20;;
3627;SDS011;1830;49.000;12.074;2024-03-23T08:57:37;7.30;;;5.10;;
3627;SDS011;1830;49.000;12.074;2024-03-23T09:00:03;4.80;;;4.13;;
3627;SDS011;1830;49.000;12.074;2024-03-23T09:02:31;7.03;;;4.10;;
3627;SDS011;1830;49.000;12.074;2024-03-23T09:04:56;10.20;;;6.87;;
3627;SDS011;1830;49.000;12.074;2024-03-23T09:07:29;6.63;;;5.30;;
3627;SDS011;1830;49.000;12.074;2024-03-23T09:09:55;6.53;;;5.57;;
3627;SDS011;1830;49.000;12.074;2024-03-23T09:12:22;6.97;;;4.93;;
3627;SDS011;1830;49.000;12.074;2024-03-23T09:14:49;7.30;;;5.90;;
3627;SDS011;1830;49.000;12.074;2024-03-23T09:17:16;6.13;;;4.53;;
3627;SDS011;1830;49.000;12.074;2024-03-23T09:19:43;6.97;;;4.80;;
3627;SDS011;1830;49.000;12.074;2024-03-23T09:22:10;6.50;;;4.97;;
3627;SDS011;1830;49.000;12.074;2024-03-23T09:24:35;7.17;;;5.77;;
3627;SDS011;1830;49.000;12.074;2024-03-23T09:27:02;6.90;;;6.20;;
3627;SDS011;1830;49.000;12.074;2024-03-23T09:29:29;8.10;;;6.40;;
3627;SDS011;1830;49.000;12.074;2024-03-23T09:31:57;8.10;;;4.90;;
3627;SDS011;1830;49.000;12.074;2024-03-23T09:34:23;6.93;;;5.63;;
3627;SDS011;1830;49.000;12.074;2024-03-23T09:36:50;6.80;;;5.77;;
3627;SDS011;1830;49.000;12.074;2024-03-23T09:39:16;6.37;;;5.10;;
3627;SDS011;1830;49.000;12.074;2024-03-23T09:41:44;3.90;;;3.50;;
3627;SDS011;1830;49.000;12.074;2024-03-23T09:44:10;4.33;;;3.93;;
3627;SDS011;1830;49.000;12.074;2024-03-23T09:46:37;2.73;;;2.53;;
3627;SDS011;1830;49.000;12.074;2024-03-23T09:49:05;6.30;;;4.50;;
3627;SDS011;1830;49.000;12.074;2024-03-23T09:51:35;4.53;;;4.13;;
3627;SDS011;1830;49.000;12.074;2024-03-23T09:54:01;4.20;;;2.83;;
3627;SDS011;1830;49.000;12.074;2024-03-23T09:56:28;4.50;;;2.87;;
3627;SDS011;1830;49.000;12.074;2024-03-23T09:58:59;4.67;;;3.10;;
3627;SDS011;1830;49.000;12.074;2024-03-23T10:01:29;1.30;;;1.20;;
3627;SDS011;1830;49.000;12.074;2024-03-23T10:03:55;3.13;;;2.83;;
3627;SDS011;1830;49.000;12.074;2024-03-23T10:06:23;2.40;;;2.20;;
3627;SDS011;1830;49.000;12.074;2024-03-23T10:08:50;2.70;;;2.37;;
3627;SDS011;1830;49.000;12.074;2024-03-23T10:11:20;2.50;;;2.30;;
3627;SDS011;1830;49.000;12.074;2024-03-23T10:13:46;10.07;;;2.87;;
3627;SDS011;1830;49.000;12.074;2024-03-23T10:16:20;2.23;;;1.90;;
3627;SDS011;1830;49.000;12.074;2024-03-23T10:18:47;2.30;;;2.20;;
3627;SDS011;1830;49.000;12.074;2024-03-23T10:21:14;4.93;;;2.47;;
3627;SDS011;1830;49.000;12.074;2024-03-23T10:23:42;2.87;;;2.67;;
3627;SDS011;1830;49.000;12.074;2024-03-23T10:26:14;3.00;;;2.70;;
3627;SDS011;1830;49.000;12.074;2024-03-23T10:28:54;3.17;;;2.87;;
3627;SDS011;1830;49.000;12.074;2024-03-23T10:31:24;3.00;;;2.80;;
3627;SDS011;1830;49.000;12.074;2024-03-23T10:33:50;2.13;;;2.03;;
3627;SDS011;1830;49.000;12.074;2024-03-23T10:36:19;2.00;;;1.90;;
3627;SDS011;1830;49.000;12.074;2024-03-23T10:38:47;2.47;;;2.27;;
3627;SDS011;1830;49.000;12.074;2024-03-23T10:41:15;2.10;;;2.00;;
3627;SDS011;1830;49.000;12.074;2024-03-23T10:43:42;2.27;;;2.10;;
3627;SDS011;1830;49.000;12.074;2024-03-23T10:46:11;2.03;;;1.90;;
3627;SDS011;1830;49.000;12.074;2024-03-23T10:48:37;1.33;;;1.33;;
3627;SDS011;1830;49.000;12.074;2024-03-23T10:51:05;1.50;;;1.50;;
3627;SDS011;1830;49.000;12.074;2024-03-23T10:53:33;2.17;;;2.07;;
3627;SDS011;1830;49.000;12.074;2024-03-23T10:56:03;1.60;;;1.50;;
3627;SDS011;1830;49.000;12.074;2024-03-23T10:58:31;1.40;;;1.40;;
3627;SDS011;1830;49.000;12.074;2024-03-23T11:00:59;1.83;;;1.73;;
3627;SDS011;1830;49.000;12.074;2024-03-23T11:03:33;2.10;;;1.93;;
3627;SDS011;1830;49.000;12.074;2024-03-23T11:06:01;1.37;;;1.37;;
3627;SDS011;1830;49.000;12.074;2024-03-23T11:08:31;2.13;;;2.03;;
3627;SDS011;1830;49.000;12.074;2024-03-23T11:11:14;2.13;;;2.03;;
3627;SDS011;1830;49.000;12.074;2024-03-23T11:13:42;2.50;;;2.30;;
3627;SDS011;1830;49.000;12.074;2024-03-23T11:16:21;2.07;;;1.97;;
3627;SDS011;1830;49.000;12.074;2024-03-23T11:18:48;1.40;;;1.40;;
3627;SDS011;1830;49.000;12.074;2024-03-23T11:24:20;1.93;;;1.87;;
3627;SDS011;1830;49.000;12.074;2024-03-23T11:26:48;1.50;;;1.50;;
3627;SDS011;1830;49.000;12.074;2024-03-23T11:29:15;2.00;;;1.90;;
3627;SDS011;1830;49.000;12.074;2024-03-23T11:31:46;2.10;;;2.00;;
3627;SDS011;1830;49.000;12.074;2024-03-23T11:34:14;5.73;;;4.47;;
3627;SDS011;1830;49.000;12.074;2024-03-23T11:36:40;3.90;;;3.13;;
3627;SDS011;1830;49.000;12.074;2024-03-23T11:39:13;14.13;;;7.67;;
3627;SDS011;1830;49.000;12.074;2024-03-23T11:41:48;4.50;;;3.87;;
3627;SDS011;1830;49.000;12.074;2024-03-23T11:44:16;2.53;;;2.33;;
3627;SDS011;1830;49.000;12.074;2024-03-23T11:46:43;2.43;;;2.13;;
3627;SDS011;1830;49.000;12.074;2024-03-23T11:49:20;4.50;;;2.10;;
3627;SDS011;1830;49.000;12.074;2024-03-23T11:51:47;2.70;;;2.60;;
3627;SDS011;1830;49.000;12.074;2024-03-23T11:54:14;2.50;;;2.30;;
3627;SDS011;1830;49.000;12.074;2024-03-23T11:56:40;1.90;;;1.80;;
3627;SDS011;1830;49.000;12.074;2024-03-23T11:59:08;2.93;;;2.30;;
3627;SDS011;1830;49.000;12.074;2024-03-23T12:01:34;2.77;;;2.57;;
3627;SDS011;1830;49.000;12.074;2024-03-23T12:04:00;2.97;;;2.20;;
3627;SDS011;1830;49.000;12.074;2024-03-23T12:06:27;2.70;;;2.43;;
3627;SDS011;1830;49.000;12.074;2024-03-23T12:08:54;2.30;;;2.10;;
3627;SDS011;1830;49.000;12.074;2024-03-23T12:11:31;2.10;;;1.90;;
3627;SDS011;1830;49.000;12.074;2024-03-23T12:13:59;2.20;;;2.03;;
3627;SDS011;1830;49.000;12.074;2024-03-23T12:16:26;1.97;;;1.43;;
3627;SDS011;1830;49.000;12.074;2024-03-23T12:18:53;1.90;;;1.80;;
3627;SDS011;1830;49.000;12.074;2024-03-23T12:21:30;2.30;;;2.10;;
3627;SDS011;1830;49.000;12.074;2024-03-23T12:23:57;4.00;;;2.50;;
3627;SDS011;1830;49.000;12.074;2024-03-23T12:26:23;3.00;;;2.63;;
3627;SDS011;1830;49.000;12.074;2024-03-23T12:28:50;2.80;;;2.20;;
3627;SDS011;1830;49.000;12.074;2024-03-23T12:31:16;2.00;;;1.90;;
3627;SDS011;1830;49.000;12.074;2024-03-23T12:33:44;2.90;;;2.17;;
3627;SDS011;1830;49.000;12.074;2024-03-23T12:36:10;3.57;;;2.00;;
3627;SDS011;1830;49.000;12.074;2024-03-23T12:38:36;2.13;;;2.00;;
3627;SDS011;1830;49.000;12.074;2024-03-23T12:41:02;2.47;;;2.20;;
3627;SDS011;1830;49.000;12.074;2024-03-23T12:43:30;4.57;;;2.47;;
3627;SDS011;1830;49.000;12.074;2024-03-23T12:45:56;6.13;;;3.07;;
3627;SDS011;1830;49.000;12.074;2024-03-23T12:48:22;20.20;;;9.60;;
3627;SDS011;1830;49.000;12.074;2024-03-23T12:50:50;4.93;;;2.90;;
3627;SDS011;1830;49.000;12.074;2024-03-23T12:53:20;10.43;;;3.53;;
3627;SDS011;1830;49.000;12.074;2024-03-23T12:55:46;9.07;;;3.70;;
3627;SDS011;1830;49.000;12.074;2024-03-23T12:58:13;10.67;;;4.47;;
3627;SDS011;1830;49.000;12.074;2024-03-23T13:00:39;7.40;;;4.77;;
3627;SDS011;1830;49.000;12.074;2024-03-23T13:03:05;4.07;;;3.00;;
3627;SDS011;1830;49.000;12.074;2024-03-23T13:05:32;3.17;;;2.87;;
3627;SDS011;1830;49.000;12.074;2024-03-23T13:08:00;13.40;;;4.00;;
3627;SDS011;1830;49.000;12.074;2024-03-23T13:10:26;2.50;;;2.30;;
3627;SDS011;1830;49.000;12.074;2024-03-23T13:12:53;4.30;;;2.90;;
3627;SDS011;1830;49.000;12.074;2024-03-23T13:15:18;4.83;;;2.53;;
3627;SDS011;1830;49.000;12.074;2024-03-23T13:17:45;7.60;;;2.90;;
3627;SDS011;1830;49.000;12.074;2024-03-23T13:20:11;8.70;;;3.17;;
3627;SDS011;1830;49.000;12.074;2024-03-23T13:22:40;4.80;;;2.90;;
3627;SDS011;1830;49.000;12.074;2024-03-23T13:25:07;3.13;;;2.80;;
3627;SDS011;1830;49.000;12.074;2024-03-23T13:27:34;2.50;;;2.30;;
3627;SDS011;1830;49.000;12.074;2024-03-23T13:30:00;2.77;;;2.57;;
3627;SDS011;1830;49.000;12.074;2024-03-23T13:32:29;3.43;;;3.13;;
3627;SDS011;1830;49.000;12.074;2024-03-23T13:34:54;3.73;;;2.93;;
3627;SDS011;1830;49.000;12.074;2024-03-23T13:37:21;3.90;;;2.53;;
3627;SDS011;1830;49.000;12.074;2024-03-23T13:39:47;4.80;;;2.80;;
3627;SDS011;1830;49.000;12.074;2024-03-23T13:42:15;5.80;;;2.83;;
3627;SDS011;1830;49.000;12.074;2024-03-23T13:44:41;3.43;;;2.80;;
3627;SDS011;1830;49.000;12.074;2024-03-23T13:47:08;2.87;;;2.40;;
3627;SDS011;1830;49.000;12.074;2024-03-23T13:49:34;3.43;;;2.57;;
3627;SDS011;1830;49.000;12.074;2024-03-23T13:52:01;2.90;;;2.20;;
3627;SDS011;1830;49.000;12.074;2024-03-23T13:54:27;4.00;;;2.90;;
3627;SDS011;1830;49.000;12.074;2024-03-23T13:56:54;4.23;;;3.00;;
3627;SDS011;1830;49.000;12.074;2024-03-23T13:59:22;5.30;;;3.13;;
3627;SDS011;1830;49.000;12.074;2024-03-23T14:01:49;3.03;;;2.73;;
3627;SDS011;1830;49.000;12.074;2024-03-23T14:04:15;3.33;;;2.50;;
3627;SDS011;1830;49.000;12.074;2024-03-23T14:06:44;3.63;;;2.77;;
3627;SDS011;1830;49.000;12.074;2024-03-23T14:09:10;3.00;;;2.80;;
3627;SDS011;1830;49.000;12.074;2024-03-23T14:11:37;6.50;;;4.70;;
3627;SDS011;1830;49.000;12.074;2024-03-23T14:14:03;3.93;;;2.73;;
3627;SDS011;1830;49.000;12.074;2024-03-23T14:16:31;4.20;;;3.23;;
3627;SDS011;1830;49.000;12.074;2024-03-23T14:18:58;7.27;;;3.10;;
3627;SDS011;1830;49.000;12.074;2024-03-23T14:21:25;6.63;;;3.70;;
3627;SDS011;1830;49.000;12.074;2024-03-23T14:23:51;3.87;;;3.10;;
3627;SDS011;1830;49.000;12.074;2024-03-23T14:26:18;5.70;;;4.50;;
3627;SDS011;1830;49.000;12.074;2024-03-23T14:28:43;9.93;;;5.50;;
3627;SDS011;1830;49.000;12.074;2024-03-23T14:31:10;7.27;;;4.37;;
3627;SDS011;1830;49.000;12.074;2024-03-23T14:33:38;5.43;;;4.40;;
3627;SDS011;1830;49.000;12.074;2024-03-23T14:36:06;6.53;;;4.40;;
3627;SDS011;1830;49.000;12.074;2024-03-23T14:38:33;8.10;;;4.53;;
3627;SDS011;1830;49.000;12.074;2024-03-23T14:41:00;4.67;;;4.10;;
3627;SDS011;1830;49.000;12.074;2024-03-23T14:43:26;5.30;;;3.60;;
3627;SDS011;1830;49.000;12.074;2024-03-23T14:46:08;5.30;;;3.00;;
3627;SDS011;1830;49.000;12.074;2024-03-23T14:48:35;8.80;;;6.37;;
3627;SDS011;1830;49.000;12.074;2024-03-23T14:51:03;10.00;;;2.73;;
3627;SDS011;1830;49.000;12.074;2024-03-23T14:53:30;4.50;;;3.07;;
3627;SDS011;1830;49.000;12.074;2024-03-23T14:55:57;3.87;;;3.20;;
3627;SDS011;1830;49.000;12.074;2024-03-23T14:58:25;9.07;;;3.97;;
3627;SDS011;1830;49.000;12.074;2024-03-23T15:00:51;5.70;;;4.40;;
3627;SDS011;1830;49.000;12.074;2024-03-23T15:03:17;6.73;;;3.70;;
3627;SDS011;1830;49.000;12.074;2024-03-23T15:05:52;6.80;;;3.97;;
3627;SDS011;1830;49.000;12.074;2024-03-23T15:08:19;8.73;;;4.30;;
3627;SDS011;1830;49.000;12.074;2024-03-23T15:10:45;8.10;;;4.73;;
3627;SDS011;1830;49.000;12.074;2024-03-23T15:13:11;6.03;;;4.40;;
3627;SDS011;1830;49.000;12.074;2024-03-23T15:15:38;9.90;;;6.03;;
3627;SDS011;1830;49.000;12.074;2024-03-23T15:18:05;10.77;;;4.40;;
3627;SDS011;1830;49.000;12.074;2024-03-23T15:20:32;6.60;;;3.57;;
3627;SDS011;1830;49.000;12.074;2024-03-23T15:23:02;19.17;;;4.57;;
3627;SDS011;1830;49.000;12.074;2024-03-23T15:25:28;13.20;;;7.10;;
3627;SDS011;1830;49.000;12.074;2024-03-23T15:27:55;7.60;;;4.00;;
3627;SDS011;1830;49.000;12.074;2024-03-23T15:30:22;7.33;;;4.27;;
3627;SDS011;1830;49.000;12.074;2024-03-23T15:32:48;9.43;;;5.10;;
3627;SDS011;1830;49.000;12.074;2024-03-23T15:35:15;13.57;;;5.80;;
3627;SDS011;1830;49.000;12.074;2024-03-23T15:37:41;12.30;;;4.07;;
3627;SDS011;1830;49.000;12.074;2024-03-23T15:40:10;9.13;;;5.20;;
3627;SDS011;1830;49.000;12.074;2024-03-23T15:42:38;8.07;;;4.03;;